createdAt,value
2018-06-16T00:00:15.002Z,32.87
2018-06-16T00:01:20.469Z,39.63
2018-06-16T00:02:25.997Z,35.17
2018-06-16T00:03:31.436Z,38.00
2018-06-16T00:04:36.858Z,34.63
2018-06-16T00:05:42.337Z,33.63
2018-06-16T00:06:47.774Z,34.13
2018-06-16T00:07:53.430Z,36.20
2018-06-16T00:08:58.880Z,34.07
2018-06-16T00:10:04.374Z,37.03
2018-06-16T00:11:10.024Z,34.03
2018-06-16T00:12:15.444Z,34.87
2018-06-16T00:13:20.973Z,36.83
2018-06-16T00:14:26.590Z,31.00
2018-06-16T00:15:32.114Z,33.90
2018-06-16T00:16:37.593Z,33.27
2018-06-16T00:17:43.036Z,34.77
2018-06-16T00:18:48.462Z,32.57
2018-06-16T00:19:53.931Z,34.00
2018-06-16T00:20:59.349Z,35.80
2018-06-16T00:22:04.970Z,33.43
2018-06-16T00:23:10.422Z,36.47
2018-06-16T00:24:15.948Z,41.40
2018-06-16T00:25:21.492Z,35.70
2018-06-16T00:26:26.909Z,39.90
2018-06-16T00:27:32.476Z,35.90
2018-06-16T00:28:38.070Z,39.30
2018-06-16T00:29:43.474Z,39.70
2018-06-16T00:30:48.876Z,37.87
2018-06-16T00:31:54.304Z,36.97
2018-06-16T00:32:59.873Z,31.30
2018-06-16T00:34:05.367Z,35.60
2018-06-16T00:35:10.833Z,36.90
2018-06-16T00:36:16.244Z,36.23
2018-06-16T00:37:22.196Z,38.50
2018-06-16T00:38:27.632Z,42.17
2018-06-16T00:39:33.324Z,43.50
2018-06-16T00:40:38.763Z,41.17
2018-06-16T00:41:44.346Z,37.53
2018-06-16T00:42:49.777Z,39.20
2018-06-16T00:43:55.202Z,42.83
2018-06-16T00:45:00.628Z,38.17
2018-06-16T00:46:06.088Z,40.00
2018-06-16T00:47:11.505Z,35.53
2018-06-16T00:48:16.977Z,37.90
2018-06-16T00:49:22.525Z,37.20
2018-06-16T00:50:27.989Z,38.73
2018-06-16T00:51:33.420Z,36.93
2018-06-16T00:52:39.008Z,33.13
2018-06-16T00:53:44.653Z,35.43
2018-06-16T00:54:50.061Z,41.17
2018-06-16T00:55:55.469Z,36.70
2018-06-16T00:57:17.757Z,36.97
2018-06-16T00:58:23.191Z,35.10
2018-06-16T00:59:28.650Z,42.40
2018-06-16T01:00:34.090Z,35.83
2018-06-16T01:01:39.490Z,33.13
2018-06-16T01:02:44.926Z,40.97
2018-06-16T01:03:50.349Z,35.97
2018-06-16T01:04:55.955Z,37.83
2018-06-16T01:06:01.361Z,36.97
2018-06-16T01:07:07.589Z,42.07
2018-06-16T01:08:12.957Z,36.60
2018-06-16T01:09:18.385Z,41.50
2018-06-16T01:10:23.812Z,37.03
2018-06-16T01:11:29.224Z,41.73
2018-06-16T01:12:34.626Z,36.53
2018-06-16T01:13:40.096Z,34.50
2018-06-16T01:14:45.522Z,39.60
2018-06-16T01:15:50.917Z,36.73
2018-06-16T01:16:56.433Z,43.73
2018-06-16T01:18:01.847Z,38.27
2018-06-16T01:19:07.392Z,39.00
2018-06-16T01:20:12.813Z,42.03
2018-06-16T01:21:18.239Z,37.30
2018-06-16T01:22:23.648Z,39.03
2018-06-16T01:23:29.074Z,41.80
2018-06-16T01:24:34.695Z,37.03
2018-06-16T01:25:40.105Z,37.77
2018-06-16T01:26:45.706Z,43.87
2018-06-16T01:27:51.121Z,37.73
2018-06-16T01:28:56.546Z,44.03
2018-06-16T01:30:02.030Z,39.97
2018-06-16T01:31:07.522Z,39.17
2018-06-16T01:32:12.914Z,39.93
2018-06-16T01:33:18.392Z,37.07
2018-06-16T01:34:23.791Z,43.33
2018-06-16T01:35:29.400Z,39.77
2018-06-16T01:36:34.824Z,44.73
2018-06-16T01:37:40.249Z,40.53
2018-06-16T01:38:45.652Z,40.97
2018-06-16T01:39:51.058Z,35.03
2018-06-16T01:40:56.687Z,38.80
2018-06-16T01:42:02.122Z,41.10
2018-06-16T01:43:07.577Z,39.03
2018-06-16T01:44:13.025Z,38.70
2018-06-16T01:45:18.428Z,41.60
2018-06-16T01:46:24.100Z,40.37
2018-06-16T01:47:29.554Z,46.67
2018-06-16T01:48:34.960Z,43.30
2018-06-16T01:49:40.348Z,39.07
2018-06-16T01:50:45.752Z,39.73
2018-06-16T01:51:51.393Z,44.53
2018-06-16T01:52:56.809Z,40.20
2018-06-16T01:54:02.256Z,42.33
2018-06-16T01:55:07.679Z,41.10
2018-06-16T01:56:13.106Z,36.83
2018-06-16T01:57:18.569Z,46.77
2018-06-16T01:58:23.981Z,41.03
2018-06-16T01:59:29.409Z,43.67
2018-06-16T02:00:34.846Z,38.63
2018-06-16T02:01:40.130Z,38.97
2018-06-16T02:02:45.580Z,36.83
2018-06-16T02:03:51.004Z,42.80
2018-06-16T02:04:56.603Z,40.23
2018-06-16T02:06:02.062Z,37.00
2018-06-16T02:07:07.526Z,38.27
2018-06-16T02:08:12.961Z,37.27
2018-06-16T02:09:18.465Z,43.60
2018-06-16T02:10:23.931Z,42.63
2018-06-16T02:11:29.322Z,39.67
2018-06-16T02:12:34.757Z,45.03
2018-06-16T02:13:40.156Z,41.33
2018-06-16T02:14:45.664Z,39.00
2018-06-16T02:15:51.279Z,42.00
2018-06-16T02:16:56.697Z,45.00
2018-06-16T02:18:02.118Z,45.50
2018-06-16T02:19:07.548Z,45.23
2018-06-16T02:20:12.985Z,43.30
2018-06-16T02:21:18.466Z,42.80
2018-06-16T02:22:23.866Z,47.50
2018-06-16T02:23:29.273Z,44.17
2018-06-16T02:24:34.659Z,45.77
2018-06-16T02:25:40.102Z,46.30
2018-06-16T02:26:45.551Z,38.67
2018-06-16T02:27:50.936Z,45.00
2018-06-16T02:28:56.328Z,43.87
2018-06-16T02:30:01.752Z,43.87
2018-06-16T02:31:07.167Z,48.33
2018-06-16T02:32:12.617Z,41.67
2018-06-16T02:33:18.098Z,40.43
2018-06-16T02:34:23.544Z,45.87
2018-06-16T02:35:28.976Z,47.50
2018-06-16T02:36:34.399Z,43.53
2018-06-16T02:37:39.868Z,51.67
2018-06-16T02:38:45.366Z,48.50
2018-06-16T02:39:50.782Z,44.03
2018-06-16T02:40:56.209Z,41.97
2018-06-16T02:42:01.626Z,44.73
2018-06-16T02:43:07.057Z,43.60
2018-06-16T02:44:12.444Z,44.30
2018-06-16T02:45:17.862Z,40.90
2018-06-16T02:46:23.397Z,43.00
2018-06-16T02:47:28.703Z,38.57
2018-06-16T02:48:34.014Z,38.43
2018-06-16T02:49:39.430Z,40.57
2018-06-16T02:50:44.874Z,43.60
2018-06-16T02:51:50.486Z,44.23
2018-06-16T02:52:55.931Z,39.10
2018-06-16T02:54:01.367Z,37.93
2018-06-16T02:55:07.021Z,47.23
2018-06-16T02:56:11.388Z,42.20
2018-06-16T02:57:16.709Z,47.53
2018-06-16T02:58:22.118Z,45.03
2018-06-16T02:59:27.533Z,43.20
2018-06-16T03:00:32.949Z,41.50
2018-06-16T03:01:38.354Z,48.43
2018-06-16T03:02:43.826Z,46.40
2018-06-16T03:03:49.257Z,43.07
2018-06-16T03:04:54.722Z,39.17
2018-06-16T03:06:00.125Z,41.47
2018-06-16T03:07:05.598Z,39.30
2018-06-16T03:08:10.993Z,43.00
2018-06-16T03:09:16.582Z,42.73
2018-06-16T03:10:21.986Z,40.73
2018-06-16T03:11:27.535Z,38.60
2018-06-16T03:12:32.945Z,42.87
2018-06-16T03:13:38.337Z,39.53
2018-06-16T03:14:43.924Z,41.67
2018-06-16T03:15:49.351Z,46.37
2018-06-16T03:16:54.882Z,45.07
2018-06-16T03:18:00.286Z,40.33
2018-06-16T03:19:05.708Z,47.07
2018-06-16T03:20:11.145Z,45.23
2018-06-16T03:21:16.580Z,44.80
2018-06-16T03:22:22.005Z,43.30
2018-06-16T03:23:27.427Z,39.30
2018-06-16T03:24:32.886Z,45.67
2018-06-16T03:25:38.347Z,42.27
2018-06-16T03:26:43.765Z,43.87
2018-06-16T03:27:49.218Z,40.80
2018-06-16T03:28:54.681Z,38.20
2018-06-16T03:30:00.189Z,51.80
2018-06-16T03:31:05.709Z,39.97
2018-06-16T03:32:11.114Z,43.80
2018-06-16T03:33:16.792Z,39.20
2018-06-16T03:34:22.254Z,35.60
2018-06-16T03:35:27.649Z,44.63
2018-06-16T03:36:33.097Z,42.30
2018-06-16T03:37:38.517Z,42.20
2018-06-16T03:38:43.929Z,37.73
2018-06-16T03:39:49.372Z,44.57
2018-06-16T03:40:55.013Z,39.80
2018-06-16T03:42:00.417Z,40.80
2018-06-16T03:43:05.941Z,47.10
2018-06-16T03:44:11.411Z,48.63
2018-06-16T03:45:16.843Z,35.97
2018-06-16T03:46:22.293Z,44.03
2018-06-16T03:47:27.970Z,37.27
2018-06-16T03:48:33.372Z,41.40
2018-06-16T03:49:39.013Z,51.87
2018-06-16T03:50:44.465Z,37.17
2018-06-16T03:51:49.932Z,42.40
2018-06-16T03:52:55.490Z,40.73
2018-06-16T03:54:00.913Z,38.03
2018-06-16T03:55:06.355Z,39.73
2018-06-16T03:56:11.781Z,38.60
2018-06-16T03:57:17.206Z,35.83
2018-06-16T03:58:22.644Z,39.10
2018-06-16T03:59:28.070Z,37.97
2018-06-16T04:00:33.453Z,36.13
2018-06-16T04:01:38.877Z,41.60
2018-06-16T04:02:44.289Z,37.67
2018-06-16T04:03:49.740Z,39.23
2018-06-16T04:04:55.190Z,36.80
2018-06-16T04:06:00.798Z,35.63
2018-06-16T04:07:06.287Z,36.97
2018-06-16T04:08:12.193Z,37.57
2018-06-16T04:09:17.618Z,41.30
2018-06-16T04:10:23.046Z,38.30
2018-06-16T04:11:28.466Z,32.90
2018-06-16T04:12:33.881Z,40.20
2018-06-16T04:13:39.295Z,43.43
2018-06-16T04:14:44.699Z,38.87
2018-06-16T04:15:50.111Z,36.67
2018-06-16T04:16:55.538Z,37.80
2018-06-16T04:18:01.002Z,40.17
2018-06-16T04:19:06.445Z,41.60
2018-06-16T04:20:11.858Z,41.47
2018-06-16T04:21:17.642Z,37.93
2018-06-16T04:22:23.035Z,34.13
2018-06-16T04:23:28.453Z,36.63
2018-06-16T04:24:33.609Z,40.47
2018-06-16T04:25:38.925Z,35.27
2018-06-16T04:26:44.184Z,43.43
2018-06-16T04:27:49.561Z,46.10
2018-06-16T04:28:54.990Z,43.23
2018-06-16T04:30:00.389Z,33.97
2018-06-16T04:31:06.728Z,34.50
2018-06-16T04:32:12.089Z,35.50
2018-06-16T04:33:18.699Z,36.40
2018-06-16T04:34:24.085Z,38.20
2018-06-16T04:35:29.489Z,34.77
2018-06-16T04:36:34.885Z,42.03
2018-06-16T04:37:41.182Z,30.90
2018-06-16T04:38:46.605Z,32.10
2018-06-16T04:39:52.048Z,38.50
2018-06-16T04:40:57.464Z,34.97
2018-06-16T04:42:02.888Z,36.93
2018-06-16T04:43:08.811Z,37.00
2018-06-16T04:44:14.217Z,31.10
2018-06-16T04:45:19.697Z,37.20
2018-06-16T04:46:25.101Z,31.97
2018-06-16T04:47:30.509Z,31.60
2018-06-16T04:48:36.088Z,32.63
2018-06-16T04:49:41.515Z,33.20
2018-06-16T04:50:48.022Z,31.90
2018-06-16T04:51:53.606Z,32.03
2018-06-16T04:52:58.988Z,33.77
2018-06-16T04:54:04.513Z,34.37
2018-06-16T04:55:10.084Z,31.67
2018-06-16T04:56:15.530Z,33.50
2018-06-16T04:57:20.959Z,30.67
2018-06-16T04:58:26.346Z,32.90
2018-06-16T04:59:31.812Z,35.70
2018-06-16T05:00:37.277Z,37.80
2018-06-16T05:01:42.669Z,36.80
2018-06-16T05:02:48.155Z,31.50
2018-06-16T05:03:53.555Z,34.70
2018-06-16T05:04:58.961Z,34.13
2018-06-16T05:06:04.419Z,31.40
2018-06-16T05:07:09.858Z,36.20
2018-06-16T05:08:15.376Z,34.97
2018-06-16T05:09:20.782Z,38.97
2018-06-16T05:10:26.228Z,41.77
2018-06-16T05:11:31.662Z,33.73
2018-06-16T05:12:37.170Z,30.70
2018-06-16T05:13:42.586Z,34.70
2018-06-16T05:14:48.507Z,40.60
2018-06-16T05:15:53.975Z,33.97
2018-06-16T05:16:59.470Z,38.90
2018-06-16T05:18:05.217Z,36.10
2018-06-16T05:19:10.637Z,40.83
2018-06-16T05:20:16.058Z,32.17
2018-06-16T05:21:21.502Z,36.83
2018-06-16T05:22:26.926Z,33.57
2018-06-16T05:23:32.321Z,35.33
2018-06-16T05:24:37.774Z,36.27
2018-06-16T05:25:43.450Z,35.83
2018-06-16T05:26:48.937Z,36.77
2018-06-16T05:27:54.502Z,37.63
2018-06-16T05:28:59.951Z,35.00
2018-06-16T05:30:05.485Z,34.30
2018-06-16T05:31:11.022Z,46.73
2018-06-16T05:32:16.613Z,35.73
2018-06-16T05:33:22.135Z,36.50
2018-06-16T05:35:30.534Z,37.60
2018-06-16T05:36:36.019Z,38.13
2018-06-16T05:37:41.637Z,38.00
2018-06-16T05:38:47.301Z,39.07
2018-06-16T05:39:52.790Z,36.03
2018-06-16T05:40:58.238Z,38.40
2018-06-16T05:42:03.670Z,34.27
2018-06-16T05:43:09.146Z,39.53
2018-06-16T05:44:14.574Z,36.77
2018-06-16T05:45:20.689Z,34.30
2018-06-16T05:46:26.177Z,42.90
2018-06-16T05:47:31.584Z,33.77
2018-06-16T05:48:37.238Z,34.90
2018-06-16T05:49:43.221Z,35.00
2018-06-16T05:50:48.765Z,37.73
2018-06-16T05:51:55.457Z,40.13
2018-06-16T05:53:00.914Z,40.23
2018-06-16T05:54:06.560Z,41.03
2018-06-16T05:55:12.101Z,35.87
2018-06-16T05:56:17.652Z,36.93
2018-06-16T05:57:23.153Z,36.00
2018-06-16T05:58:28.777Z,34.43
2018-06-16T05:59:33.966Z,33.40
2018-06-16T06:00:39.935Z,32.40
2018-06-16T06:01:45.702Z,34.13
2018-06-16T06:02:51.341Z,36.10
2018-06-16T06:03:56.950Z,33.83
2018-06-16T06:05:02.465Z,41.47
2018-06-16T06:06:08.017Z,32.87
2018-06-16T06:07:13.721Z,35.63
2018-06-16T06:08:19.234Z,36.23
2018-06-16T06:09:24.893Z,37.97
2018-06-16T06:10:30.656Z,38.10
2018-06-16T06:11:36.173Z,34.47
2018-06-16T06:12:42.069Z,32.33
2018-06-16T06:13:47.562Z,36.83
2018-06-16T06:14:53.160Z,35.67
2018-06-16T06:15:58.861Z,42.43
2018-06-16T06:17:04.309Z,33.43
2018-06-16T06:18:09.745Z,38.93
2018-06-16T06:19:15.281Z,34.10
2018-06-16T06:20:20.769Z,34.13
2018-06-16T06:21:26.278Z,28.70
2018-06-16T06:22:31.654Z,40.97
2018-06-16T06:23:37.090Z,32.23
2018-06-16T06:24:42.656Z,33.87
2018-06-16T06:25:48.222Z,39.03
2018-06-16T06:26:53.790Z,33.17
2018-06-16T06:28:00.221Z,34.53
2018-06-16T06:29:05.605Z,35.03
2018-06-16T06:30:11.074Z,36.17
2018-06-16T06:31:16.746Z,32.23
2018-06-16T06:32:22.401Z,29.53
2018-06-16T06:33:27.956Z,36.00
2018-06-16T06:34:33.449Z,34.07
2018-06-16T06:35:38.877Z,26.13
2018-06-16T06:36:44.542Z,36.00
2018-06-16T06:37:49.954Z,31.13
2018-06-16T06:38:55.419Z,29.50
2018-06-16T06:40:00.940Z,38.03
2018-06-16T06:41:06.386Z,27.73
2018-06-16T06:42:11.813Z,33.93
2018-06-16T06:43:17.413Z,33.20
2018-06-16T06:44:23.056Z,34.73
2018-06-16T06:45:28.589Z,39.53
2018-06-16T06:46:34.157Z,34.40
2018-06-16T06:47:39.549Z,34.03
2018-06-16T06:48:45.123Z,34.80
2018-06-16T06:49:50.548Z,29.07
2018-06-16T06:50:56.172Z,31.53
2018-06-16T06:52:01.646Z,32.63
2018-06-16T06:53:07.105Z,27.13
2018-06-16T06:54:12.734Z,36.07
2018-06-16T06:55:18.293Z,29.40
2018-06-16T06:56:23.900Z,33.27
2018-06-16T06:57:29.331Z,30.80
2018-06-16T06:58:34.829Z,38.40
2018-06-16T06:59:40.849Z,29.77
2018-06-16T07:00:46.277Z,30.83
2018-06-16T07:01:51.727Z,29.17
2018-06-16T07:02:57.340Z,31.83
2018-06-16T07:04:02.842Z,32.33
2018-06-16T07:05:08.246Z,29.40
2018-06-16T07:06:14.466Z,27.47
2018-06-16T07:07:19.888Z,33.30
2018-06-16T07:08:25.357Z,38.77
2018-06-16T07:09:30.872Z,33.80
2018-06-16T07:10:36.511Z,37.73
2018-06-16T07:11:41.916Z,31.07
2018-06-16T07:12:47.363Z,31.90
2018-06-16T07:13:53.409Z,30.67
2018-06-16T07:14:58.762Z,30.40
2018-06-16T07:16:04.798Z,28.90
2018-06-16T07:17:10.228Z,28.47
2018-06-16T07:18:15.693Z,33.07
2018-06-16T07:19:21.329Z,26.50
2018-06-16T07:20:26.934Z,30.97
2018-06-16T07:21:32.394Z,24.90
2018-06-16T07:22:38.154Z,26.43
2018-06-16T07:23:43.587Z,26.40
2018-06-16T07:24:49.094Z,28.67
2018-06-16T07:25:54.502Z,27.37
2018-06-16T07:26:59.997Z,32.20
2018-06-16T07:28:05.731Z,29.80
2018-06-16T07:29:11.156Z,27.47
2018-06-16T07:30:16.600Z,22.60
2018-06-16T07:31:22.001Z,27.10
2018-06-16T07:32:27.428Z,26.43
2018-06-16T07:33:32.873Z,25.83
2018-06-16T07:34:38.287Z,29.40
2018-06-16T07:35:43.740Z,26.53
2018-06-16T07:36:49.166Z,26.00
2018-06-16T07:37:54.693Z,28.23
2018-06-16T07:39:00.138Z,30.63
2018-06-16T07:40:05.679Z,22.77
2018-06-16T07:41:11.243Z,21.10
2018-06-16T07:42:16.692Z,25.27
2018-06-16T07:43:22.324Z,21.40
2018-06-16T07:44:27.776Z,28.33
2018-06-16T07:45:33.188Z,26.30
2018-06-16T07:46:38.997Z,27.60
2018-06-16T07:47:44.839Z,19.60
2018-06-16T07:48:51.133Z,25.30
2018-06-16T07:49:57.317Z,21.40
2018-06-16T07:51:02.868Z,19.40
2018-06-16T07:52:08.342Z,20.40
2018-06-16T07:53:13.801Z,29.40
2018-06-16T07:54:19.582Z,26.57
2018-06-16T07:55:25.038Z,23.47
2018-06-16T07:56:30.990Z,26.97
2018-06-16T07:57:37.139Z,23.93
2018-06-16T07:58:45.810Z,26.37
2018-06-16T07:59:51.301Z,25.90
2018-06-16T08:00:57.700Z,26.40
2018-06-16T08:02:03.110Z,21.20
2018-06-16T08:03:08.884Z,23.53
2018-06-16T08:04:14.237Z,21.47
2018-06-16T08:05:20.384Z,24.73
2018-06-16T08:06:26.070Z,25.20
2018-06-16T08:07:31.485Z,20.00
2018-06-16T08:08:37.787Z,20.23
2018-06-16T08:09:43.227Z,24.57
2018-06-16T08:10:49.337Z,25.40
2018-06-16T08:11:55.019Z,27.20
2018-06-16T08:13:00.597Z,23.53
2018-06-16T08:14:06.149Z,23.83
2018-06-16T08:15:11.585Z,21.77
2018-06-16T08:16:17.009Z,24.03
2018-06-16T08:17:22.458Z,27.70
2018-06-16T08:18:28.151Z,27.77
2018-06-16T08:19:33.568Z,23.07
2018-06-16T08:20:38.989Z,17.80
2018-06-16T08:21:44.580Z,21.83
2018-06-16T08:22:50.062Z,25.97
2018-06-16T08:23:56.720Z,20.73
2018-06-16T08:25:01.885Z,21.40
2018-06-16T08:26:08.319Z,30.30
2018-06-16T08:27:13.773Z,25.83
2018-06-16T08:28:19.258Z,27.77
2018-06-16T08:29:25.162Z,27.83
2018-06-16T08:30:30.637Z,28.37
2018-06-16T08:31:36.118Z,24.00
2018-06-16T08:32:42.394Z,28.90
2018-06-16T08:33:47.841Z,27.30
2018-06-16T08:34:53.312Z,27.90
2018-06-16T08:35:59.074Z,28.27
2018-06-16T08:37:04.698Z,27.67
2018-06-16T08:38:10.533Z,31.13
2018-06-16T08:39:16.356Z,23.87
2018-06-16T08:40:21.956Z,30.57
2018-06-16T08:41:27.441Z,26.67
2018-06-16T08:42:32.911Z,23.83
2018-06-16T08:43:38.497Z,33.27
2018-06-16T08:44:44.058Z,26.63
2018-06-16T08:45:49.660Z,30.83
2018-06-16T08:46:55.150Z,33.80
2018-06-16T08:48:01.184Z,29.77
2018-06-16T08:49:06.949Z,33.40
2018-06-16T08:50:13.114Z,30.13
2018-06-16T08:51:19.713Z,31.47
2018-06-16T08:52:25.136Z,36.23
2018-06-16T08:53:30.549Z,33.60
2018-06-16T08:54:36.033Z,33.93
2018-06-16T08:55:41.509Z,33.80
2018-06-16T08:56:46.956Z,35.10
2018-06-16T08:57:52.394Z,33.60
2018-06-16T08:58:58.861Z,32.20
2018-06-16T09:00:04.424Z,30.90
2018-06-16T09:01:09.865Z,31.63
2018-06-16T09:02:15.331Z,35.83
2018-06-16T09:03:21.826Z,36.77
2018-06-16T09:04:27.270Z,43.03
2018-06-16T09:05:33.048Z,46.93
2018-06-16T09:06:38.541Z,46.97
2018-06-16T09:07:44.808Z,33.13
2018-06-16T09:08:50.377Z,44.60
2018-06-16T09:09:55.571Z,59.30
2018-06-16T09:11:01.061Z,51.40
2018-06-16T09:12:06.534Z,34.23
2018-06-16T09:13:12.066Z,45.33
2018-06-16T09:14:17.622Z,38.03
2018-06-16T09:15:23.206Z,44.60
2018-06-16T09:16:29.513Z,34.90
2018-06-16T09:17:36.170Z,32.40
2018-06-16T09:18:41.584Z,33.93
2018-06-16T09:19:48.139Z,38.37
2018-06-16T09:20:53.799Z,43.17
2018-06-16T09:21:59.858Z,29.73
2018-06-16T09:23:05.120Z,44.40
2018-06-16T09:24:11.125Z,38.53
2018-06-16T09:25:16.678Z,35.23
2018-06-16T09:26:22.298Z,44.03
2018-06-16T09:27:27.969Z,34.17
2018-06-16T09:28:33.217Z,67.07
2018-06-16T09:29:38.636Z,45.63
2018-06-16T09:30:44.438Z,34.40
2018-06-16T09:31:50.043Z,41.23
2018-06-16T09:32:55.525Z,38.63
2018-06-16T09:34:01.049Z,44.43
2018-06-16T09:35:06.568Z,42.23
2018-06-16T09:36:12.280Z,31.47
2018-06-16T09:37:18.046Z,35.00
2018-06-16T09:38:23.576Z,39.90
2018-06-16T09:39:29.071Z,32.43
2018-06-16T09:40:34.554Z,33.90
2018-06-16T09:41:41.092Z,44.63
2018-06-16T09:42:46.753Z,32.30
2018-06-16T09:43:55.090Z,49.57
2018-06-16T09:45:00.374Z,36.43
2018-06-16T09:46:06.585Z,39.03
2018-06-16T09:47:12.095Z,34.07
2018-06-16T09:48:18.147Z,37.23
2018-06-16T09:49:23.681Z,38.43
2018-06-16T09:50:29.136Z,36.50
2018-06-16T09:51:34.661Z,41.13
2018-06-16T09:52:40.091Z,41.17
2018-06-16T09:53:45.549Z,39.63
2018-06-16T09:54:51.049Z,37.53
2018-06-16T09:55:56.481Z,34.40
2018-06-16T09:57:01.938Z,36.00
2018-06-16T09:58:07.141Z,44.47
2018-06-16T09:59:12.608Z,38.80
2018-06-16T10:00:24.886Z,32.17
2018-06-16T10:01:30.334Z,34.50
2018-06-16T10:02:35.480Z,35.53
2018-06-16T10:03:40.901Z,32.73
2018-06-16T10:04:46.505Z,33.00
2018-06-16T10:05:51.931Z,39.40
2018-06-16T10:06:57.353Z,42.37
2018-06-16T10:08:02.781Z,31.70
2018-06-16T10:09:09.442Z,51.83
2018-06-16T10:10:15.660Z,54.43
2018-06-16T10:11:21.074Z,54.63
2018-06-16T10:12:26.606Z,32.53
2018-06-16T10:13:32.017Z,38.23
2018-06-16T10:14:37.428Z,30.70
2018-06-16T10:15:42.771Z,29.93
2018-06-16T10:16:48.085Z,34.50
2018-06-16T10:17:53.533Z,28.03
2018-06-16T10:18:59.101Z,39.37
2018-06-16T10:20:04.599Z,37.30
2018-06-16T10:21:10.279Z,34.27
2018-06-16T10:22:15.662Z,36.17
2018-06-16T10:23:21.078Z,32.27
2018-06-16T10:24:26.476Z,38.67
2018-06-16T10:25:31.996Z,31.40
2018-06-16T10:26:37.471Z,34.87
2018-06-16T10:27:43.194Z,29.93
2018-06-16T10:28:48.673Z,32.17
2018-06-16T10:29:54.272Z,26.70
2018-06-16T10:30:59.681Z,30.93
2018-06-16T10:32:05.117Z,34.50
2018-06-16T10:33:10.627Z,36.40
2018-06-16T10:34:16.074Z,31.37
2018-06-16T10:35:21.495Z,30.83
2018-06-16T10:36:26.956Z,28.13
2018-06-16T10:37:32.361Z,39.13
2018-06-16T10:38:37.826Z,32.73
2018-06-16T10:39:43.236Z,29.30
2018-06-16T10:40:48.710Z,29.50
2018-06-16T10:41:54.124Z,28.50
2018-06-16T10:42:59.543Z,37.20
2018-06-16T10:44:04.978Z,35.53
2018-06-16T10:45:10.558Z,25.97
2018-06-16T10:46:16.010Z,27.20
2018-06-16T10:47:21.208Z,32.13
2018-06-16T10:48:26.661Z,27.90
2018-06-16T10:49:32.084Z,29.90
2018-06-16T10:50:37.540Z,29.47
2018-06-16T10:51:43.035Z,26.00
2018-06-16T10:52:48.497Z,27.53
2018-06-16T10:53:53.920Z,30.27
2018-06-16T10:54:59.486Z,27.53
2018-06-16T10:56:05.138Z,26.93
2018-06-16T10:57:10.577Z,24.77
2018-06-16T10:58:16.003Z,27.83
2018-06-16T10:59:21.413Z,29.03
2018-06-16T11:00:26.984Z,30.03
2018-06-16T11:01:32.640Z,23.90
2018-06-16T11:02:38.053Z,25.30
2018-06-16T11:03:43.442Z,28.80
2018-06-16T11:04:48.865Z,28.43
2018-06-16T11:05:54.320Z,24.77
2018-06-16T11:06:59.802Z,22.20
2018-06-16T11:08:05.294Z,20.90
2018-06-16T11:09:11.610Z,20.50
2018-06-16T11:10:17.025Z,22.50
2018-06-16T11:11:22.521Z,20.47
2018-06-16T11:12:28.048Z,14.40
2018-06-16T11:13:33.465Z,29.53
2018-06-16T11:14:39.146Z,30.47
2018-06-16T11:15:44.585Z,23.03
2018-06-16T11:16:50.030Z,25.37
2018-06-16T11:17:55.481Z,19.97
2018-06-16T11:19:00.950Z,24.37
2018-06-16T11:20:06.792Z,20.90
2018-06-16T11:21:12.245Z,22.13
2018-06-16T11:22:17.825Z,35.30
2018-06-16T11:23:23.226Z,21.57
2018-06-16T11:24:28.640Z,25.40
2018-06-16T11:25:34.100Z,22.57
2018-06-16T11:26:39.521Z,33.73
2018-06-16T11:27:45.059Z,20.87
2018-06-16T11:28:50.706Z,19.27
2018-06-16T11:29:56.601Z,24.50
2018-06-16T11:31:02.194Z,23.30
2018-06-16T11:32:07.630Z,23.27
2018-06-16T11:33:13.359Z,23.97
2018-06-16T11:34:18.897Z,32.77
2018-06-16T11:35:24.348Z,24.77
2018-06-16T11:36:30.073Z,21.00
2018-06-16T11:37:35.634Z,28.43
2018-06-16T11:38:41.104Z,35.40
2018-06-16T11:39:46.304Z,34.47
2018-06-16T11:40:51.810Z,27.00
2018-06-16T11:41:57.312Z,27.77
2018-06-16T11:43:02.894Z,20.20
2018-06-16T11:44:08.599Z,27.60
2018-06-16T11:45:14.024Z,31.00
2018-06-16T11:46:19.546Z,21.03
2018-06-16T11:47:25.118Z,24.17
2018-06-16T11:48:30.722Z,24.80
2018-06-16T11:49:36.185Z,22.70
2018-06-16T11:50:41.725Z,22.77
2018-06-16T11:51:47.272Z,17.70
2018-06-16T11:52:52.696Z,21.53
2018-06-16T11:53:58.146Z,25.10
2018-06-16T11:55:03.790Z,24.80
2018-06-16T11:56:09.648Z,24.40
2018-06-16T11:57:15.160Z,22.77
2018-06-16T11:58:20.589Z,17.50
2018-06-16T11:59:26.204Z,18.03
2018-06-16T12:00:31.754Z,20.80
2018-06-16T12:01:37.248Z,18.60
2018-06-16T12:02:42.689Z,23.00
2018-06-16T12:03:48.317Z,16.17
2018-06-16T12:04:53.780Z,17.30
2018-06-16T12:05:59.501Z,18.50
2018-06-16T12:07:05.069Z,15.83
2018-06-16T12:08:10.757Z,25.73
2018-06-16T12:09:16.585Z,17.87
2018-06-16T12:10:22.204Z,16.63
2018-06-16T12:11:27.841Z,17.10
2018-06-16T12:12:33.347Z,16.53
2018-06-16T12:13:38.828Z,16.37
2018-06-16T12:14:44.571Z,14.67
2018-06-16T12:15:50.200Z,15.57
2018-06-16T12:16:55.689Z,10.50
2018-06-16T12:18:01.222Z,15.27
2018-06-16T12:19:07.085Z,16.70
2018-06-16T12:20:12.539Z,16.27
2018-06-16T12:21:18.066Z,12.77
2018-06-16T12:22:23.605Z,17.60
2018-06-16T12:23:29.073Z,17.20
2018-06-16T12:24:34.752Z,15.97
2018-06-16T12:25:40.268Z,19.03
2018-06-16T12:26:45.725Z,14.70
2018-06-16T12:27:51.285Z,14.40
2018-06-16T12:28:56.810Z,16.40
2018-06-16T12:30:03.090Z,16.20
2018-06-16T12:31:08.639Z,13.23
2018-06-16T12:32:13.825Z,16.57
2018-06-16T12:33:19.301Z,16.57
2018-06-16T12:34:24.883Z,10.27
2018-06-16T12:35:30.353Z,16.90
2018-06-16T12:36:35.957Z,10.67
2018-06-16T12:37:41.586Z,12.93
2018-06-16T12:38:47.309Z,12.07
2018-06-16T12:39:52.775Z,12.73
2018-06-16T12:40:58.537Z,10.77
2018-06-16T12:42:04.049Z,12.33
2018-06-16T12:43:09.508Z,10.90
2018-06-16T12:44:15.007Z,15.60
2018-06-16T12:45:20.409Z,10.57
2018-06-16T12:46:26.388Z,15.70
2018-06-16T12:47:31.960Z,10.77
2018-06-16T12:48:37.427Z,12.83
2018-06-16T12:49:43.148Z,12.30
2018-06-16T12:50:48.570Z,9.00
2018-06-16T12:51:54.010Z,9.97
2018-06-16T12:52:59.454Z,8.10
2018-06-16T12:54:05.198Z,7.43
2018-06-16T12:55:10.828Z,10.30
2018-06-16T12:56:16.386Z,9.93
2018-06-16T12:57:21.771Z,13.40
2018-06-16T12:58:27.230Z,6.67
2018-06-16T12:59:32.909Z,9.07
2018-06-16T13:00:38.301Z,8.10
2018-06-16T13:01:43.907Z,8.53
2018-06-16T13:02:49.344Z,8.30
2018-06-16T13:03:54.871Z,12.47
2018-06-16T13:05:00.338Z,4.97
2018-06-16T13:06:05.985Z,8.10
2018-06-16T13:07:11.385Z,7.87
2018-06-16T13:08:16.978Z,8.93
2018-06-16T13:09:22.430Z,6.57
2018-06-16T13:10:27.867Z,8.40
2018-06-16T13:11:33.350Z,10.33
2018-06-16T13:12:38.930Z,11.03
2018-06-16T13:13:44.343Z,7.70
2018-06-16T13:14:49.785Z,9.47
2018-06-16T13:15:55.356Z,6.17
2018-06-16T13:17:00.982Z,10.30
2018-06-16T13:18:06.733Z,10.50
2018-06-16T13:19:12.311Z,9.10
2018-06-16T13:20:17.870Z,9.10
2018-06-16T13:21:23.350Z,8.57
2018-06-16T13:22:28.820Z,9.23
2018-06-16T13:23:34.421Z,7.73
2018-06-16T13:24:39.849Z,13.17
2018-06-16T13:25:45.385Z,11.90
2018-06-16T13:26:50.826Z,13.70
2018-06-16T13:27:56.274Z,17.90
2018-06-16T13:29:01.731Z,6.87
2018-06-16T13:30:07.234Z,10.37
2018-06-16T13:31:12.701Z,12.27
2018-06-16T13:32:18.334Z,8.40
2018-06-16T13:33:23.805Z,9.33
2018-06-16T13:34:29.304Z,8.37
2018-06-16T13:35:34.741Z,11.87
2018-06-16T13:36:40.245Z,9.00
2018-06-16T13:37:45.778Z,9.97
2018-06-16T13:38:51.192Z,12.83
2018-06-16T13:39:56.625Z,8.60
2018-06-16T13:41:02.157Z,9.40
2018-06-16T13:42:07.697Z,8.07
2018-06-16T13:43:13.161Z,8.10
2018-06-16T13:44:18.626Z,11.07
2018-06-16T13:45:24.089Z,13.50
2018-06-16T13:46:29.592Z,10.33
2018-06-16T13:47:35.101Z,6.70
2018-06-16T13:48:40.574Z,9.53
2018-06-16T13:49:45.972Z,10.33
2018-06-16T13:50:51.518Z,10.80
2018-06-16T13:51:56.919Z,8.97
2018-06-16T13:53:02.547Z,10.37
2018-06-16T13:54:08.025Z,9.83
2018-06-16T13:55:13.688Z,14.70
2018-06-16T13:56:19.283Z,6.80
2018-06-16T13:57:24.701Z,8.60
2018-06-16T13:58:30.185Z,7.03
2018-06-16T13:59:35.890Z,6.70
2018-06-16T14:00:41.515Z,5.80
2018-06-16T14:01:47.320Z,10.50
2018-06-16T14:02:53.112Z,10.50
2018-06-16T14:03:58.550Z,11.20
2018-06-16T14:05:04.082Z,13.97
2018-06-16T14:06:09.595Z,7.83
2018-06-16T14:07:15.256Z,7.27